Prince George Airport
CYXS : now visible

Airfield :











YOU CAN JOIN US ON...

 
LOGIN :

Register | Disclaimer

   EN    FR    IT 

 









Legend :    VFR   Marginal VFR   IFR   Intensive IFR   Very Intensive IFR
Visi :
Ceiling :
>= 8 km
>= 3000ft
5 to 8 km
1000 to 3000 ft
1500m to 5 km
500 to 1000 ft
800 to 1500m
200 to 500 ft
< 800m
< 200 ft
Symbols :   Thunderstorms  Fog  Heavy snow  Heavy precipitations  Wind > 20 kt






- Airport Elevation : 2267 ft
- IATA code : YXS


CYXS - Prince George

CURRENT METAR :
  • 070500Z AUTO 21008KT 9SM SCT100 OVC120 13/12 A2988 RMK SLP129 DENSITY ALT 2500FT

EXPIRED METARs :
  • 070400Z AUTO 18008KT 9SM FEW085 13/12 A2988 RMK SLP129 DENSITY ALT 2600FT
  • 070330Z AUTO 17009G16KT 9SM FEW055 OVC085 14/12 A2988 RMK SLP130 DENSITY ALT 2600FT
  • 070300Z AUTO 18009G18KT 9SM RA OVC055 15/12 A2988 RMK SLP129 DENSITY ALT 2700FT
  • 070241Z AUTO 21016KT 9SM -RA BKN065 OVC079 17/11 A2986 RMK SLP123 DENSITY ALT 3000FT
  • 070228Z AUTO 21012KT 9SM BKN065 BKN081 19/09 A2986 RMK LTNG DIST E SLP120 DENSITY ALT 3300FT

TAF AMD TAF CYXS
Valid from the 07 at 02:00 until the 07 at 13:00 UTC


070245Z 0702/0713 VRB03KT P6SM SCT050 BKN100
TEMPO 0702/0706 VRB15G25KT P6SM -SHRA BKN050
PROB40 0702/0706 VRB15G25KT 5SM TSRA BKN050CB
FM070600 22005KT P6SM -SHRA FEW015 OVC030
TEMPO 0706/0709 4SM SHRA BR FEW006 OVC015
FM070900 VRB03KT P6SM SCT006 OVC020
TEMPO 0709/0713 5SM -SHRA BR BKN006 OVC015 RMK FCST BASED ON AUTO OBS. NXT FCST BY 070700Z
CZVR FIR / North America



MET'MAP, your aeronautical weather chart ! - Copyright ORBIFLY December 2007 - Disclaimer

ORBIFLY MET'MAP TEAM :

Programming & Development : Alexandra Zaïnal
Concept & original design : Baudouin d'Aumeries
Assistance for programming : Marc-Olivier Méhu
Technical & hardware support : Manuel Goepfert

Contact : metmap@orbifly.com




SOURCES & CREDITS :

   NOAA       Earth
Advisory